Search for airport 
image banner adimage banner adimage banner ad
image banner ad

O27 - Oakdale

Located in Oakdale, United States

ICAO - O27, IATA -

Data provided by Airmate  

General information

Coordinates: N37°45'23" W120°48'1"
Elevation is 237 feet MSL.
Magnetic variation is 15° East
View others Airports in California

Operational data

Special qualification required
Current time UTC:
Current local time:
METAR: KMOD 240853Z AUTO 01007KT 10SM CLR 17/12 A2993 RMK AO2 SLP134 T01670117 50006
TAF: KMOD 240520Z 2406/2506 34008KT P6SM SKC FM250100 31012KT P6SM SKC
View NOTAMs / SUP AIP / TFR affecting this airport [VIEW]
Communications frequencies: [VIEW]

Runways:

RWY identifierQFULength (ft)Width (ft)SurfaceLDA (ft)
10111°301375ASPH
28291°301375ASPH

Airport contact information

Address: Oakdale United States

Satellite view of O27